sensor_id;sensor_type;location;lat;lon;timestamp;pressure;altitude;pressure_sealevel;temperature;humidity
57056;BME280;42945;51.718;5.324;2023-07-20T00:01:43;101243.22;;;15.25;100.00
57056;BME280;42945;51.718;5.324;2023-07-20T00:04:10;101230.91;;;15.48;100.00
57056;BME280;42945;51.718;5.324;2023-07-20T00:06:35;101278.91;;;15.37;100.00
57056;BME280;42945;51.718;5.324;2023-07-20T00:09:00;101103.34;;;14.76;100.00
57056;BME280;42945;51.718;5.324;2023-07-20T00:11:26;101272.97;;;15.21;100.00
57056;BME280;42945;51.718;5.324;2023-07-20T00:13:52;101251.38;;;15.24;100.00
57056;BME280;42945;51.718;5.324;2023-07-20T00:16:18;101283.34;;;15.12;100.00
57056;BME280;42945;51.718;5.324;2023-07-20T00:18:43;101243.91;;;15.03;100.00
57056;BME280;42945;51.718;5.324;2023-07-20T00:21:09;101251.38;;;14.98;100.00
57056;BME280;42945;51.718;5.324;2023-07-20T00:23:34;101300.28;;;14.86;100.00
57056;BME280;42945;51.718;5.324;2023-07-20T00:26:00;101223.72;;;14.73;100.00
57056;BME280;42945;51.718;5.324;2023-07-20T00:28:25;101267.81;;;14.79;100.00
57056;BME280;42945;51.718;5.324;2023-07-20T00:30:50;101273.16;;;14.66;100.00
57056;BME280;42945;51.718;5.324;2023-07-20T00:33:17;101228.59;;;14.54;100.00
57056;BME280;42945;51.718;5.324;2023-07-20T00:35:42;101230.19;;;14.69;100.00
57056;BME280;42945;51.718;5.324;2023-07-20T00:38:07;101284.72;;;14.52;100.00
57056;BME280;42945;51.718;5.324;2023-07-20T00:40:36;101306.50;;;14.46;100.00
57056;BME280;42945;51.718;5.324;2023-07-20T00:43:02;101313.38;;;14.36;100.00
57056;BME280;42945;51.718;5.324;2023-07-20T00:45:29;101303.88;;;14.32;100.00
57056;BME280;42945;51.718;5.324;2023-07-20T00:47:55;101219.03;;;14.37;100.00
57056;BME280;42945;51.718;5.324;2023-07-20T00:50:20;101321.09;;;14.41;100.00
57056;BME280;42945;51.718;5.324;2023-07-20T00:52:46;101297.13;;;14.26;100.00
57056;BME280;42945;51.718;5.324;2023-07-20T00:55:11;101294.94;;;14.18;100.00
57056;BME280;42945;51.718;5.324;2023-07-20T00:57:36;101281.66;;;14.31;100.00
57056;BME280;42945;51.718;5.324;2023-07-20T01:00:03;101274.31;;;14.35;100.00
57056;BME280;42945;51.718;5.324;2023-07-20T01:02:29;101306.53;;;14.32;100.00
57056;BME280;42945;51.718;5.324;2023-07-20T01:04:54;101290.63;;;14.30;100.00
57056;BME280;42945;51.718;5.324;2023-07-20T01:07:33;101281.13;;;14.26;100.00
57056;BME280;42945;51.718;5.324;2023-07-20T01:10:14;115491.03;;;97.67;100.00
57056;BME280;42945;51.718;5.324;2023-07-20T01:12:41;101173.63;;;13.57;100.00
57056;BME280;42945;51.718;5.324;2023-07-20T01:15:07;101307.19;;;14.08;100.00
57056;BME280;42945;51.718;5.324;2023-07-20T01:17:34;101463.94;;;14.88;100.00
57056;BME280;42945;51.718;5.324;2023-07-20T01:19:59;101311.75;;;14.06;100.00
57056;BME280;42945;51.718;5.324;2023-07-20T01:25:40;101309.69;;;13.97;100.00
57056;BME280;42945;51.718;5.324;2023-07-20T01:30:55;101307.59;;;14.02;100.00
57056;BME280;42945;51.718;5.324;2023-07-20T01:33:21;101327.09;;;14.03;100.00
57056;BME280;42945;51.718;5.324;2023-07-20T01:35:53;101266.34;;;14.08;100.00
57056;BME280;42945;51.718;5.324;2023-07-20T01:38:20;101324.34;;;14.04;100.00
57056;BME280;42945;51.718;5.324;2023-07-20T01:40:46;101273.81;;;13.88;100.00
57056;BME280;42945;51.718;5.324;2023-07-20T01:43:12;101322.63;;;14.03;100.00
57056;BME280;42945;51.718;5.324;2023-07-20T01:45:38;101300.63;;;13.99;100.00
57056;BME280;42945;51.718;5.324;2023-07-20T01:48:03;101354.44;;;13.92;100.00
57056;BME280;42945;51.718;5.324;2023-07-20T01:50:29;101218.69;;;13.18;100.00
57056;BME280;42945;51.718;5.324;2023-07-20T01:52:54;101296.66;;;13.78;100.00
57056;BME280;42945;51.718;5.324;2023-07-20T01:55:20;101343.72;;;13.65;100.00
57056;BME280;42945;51.718;5.324;2023-07-20T01:57:45;101339.31;;;13.78;100.00
57056;BME280;42945;51.718;5.324;2023-07-20T02:00:11;101307.56;;;13.61;100.00
57056;BME280;42945;51.718;5.324;2023-07-20T02:02:37;101305.09;;;13.43;100.00
57056;BME280;42945;51.718;5.324;2023-07-20T02:05:02;101326.31;;;13.45;100.00
57056;BME280;42945;51.718;5.324;2023-07-20T02:07:28;101306.06;;;13.42;100.00
57056;BME280;42945;51.718;5.324;2023-07-20T02:09:53;101318.41;;;13.43;100.00
57056;BME280;42945;51.718;5.324;2023-07-20T02:12:18;101305.84;;;13.31;100.00
57056;BME280;42945;51.718;5.324;2023-07-20T02:14:43;101339.94;;;13.40;100.00
57056;BME280;42945;51.718;5.324;2023-07-20T02:17:09;101329.22;;;13.26;100.00
57056;BME280;42945;51.718;5.324;2023-07-20T02:19:36;101356.81;;;13.25;100.00
57056;BME280;42945;51.718;5.324;2023-07-20T02:22:02;101336.66;;;13.20;100.00
57056;BME280;42945;51.718;5.324;2023-07-20T02:24:27;101310.28;;;13.16;100.00
57056;BME280;42945;51.718;5.324;2023-07-20T02:26:52;101317.88;;;13.08;100.00
57056;BME280;42945;51.718;5.324;2023-07-20T02:29:18;101340.09;;;12.92;100.00
57056;BME280;42945;51.718;5.324;2023-07-20T02:31:43;101222.44;;;12.27;100.00
57056;BME280;42945;51.718;5.324;2023-07-20T02:34:08;101240.13;;;12.28;100.00
57056;BME280;42945;51.718;5.324;2023-07-20T02:36:34;101346.09;;;12.96;100.00
57056;BME280;42945;51.718;5.324;2023-07-20T02:39:00;101353.31;;;12.94;100.00
57056;BME280;42945;51.718;5.324;2023-07-20T02:41:27;101359.94;;;12.87;100.00
57056;BME280;42945;51.718;5.324;2023-07-20T02:43:52;101332.84;;;12.80;100.00
57056;BME280;42945;51.718;5.324;2023-07-20T02:46:18;101347.78;;;12.83;100.00
57056;BME280;42945;51.718;5.324;2023-07-20T02:48:43;101319.34;;;12.83;100.00
57056;BME280;42945;51.718;5.324;2023-07-20T02:51:08;101330.50;;;12.90;100.00
57056;BME280;42945;51.718;5.324;2023-07-20T02:53:34;101327.22;;;12.70;100.00
57056;BME280;42945;51.718;5.324;2023-07-20T02:56:00;101372.25;;;12.73;100.00
57056;BME280;42945;51.718;5.324;2023-07-20T02:58:26;101395.69;;;12.83;100.00
57056;BME280;42945;51.718;5.324;2023-07-20T03:00:51;101360.69;;;12.74;100.00
57056;BME280;42945;51.718;5.324;2023-07-20T03:03:16;101378.13;;;12.64;100.00
57056;BME280;42945;51.718;5.324;2023-07-20T03:05:42;101375.63;;;12.61;100.00
57056;BME280;42945;51.718;5.324;2023-07-20T03:08:07;101382.25;;;12.54;100.00
57056;BME280;42945;51.718;5.324;2023-07-20T03:10:38;101351.53;;;12.64;100.00
57056;BME280;42945;51.718;5.324;2023-07-20T03:13:03;101408.84;;;12.54;100.00
57056;BME280;42945;51.718;5.324;2023-07-20T03:15:29;101256.72;;;11.85;100.00
57056;BME280;42945;51.718;5.324;2023-07-20T03:17:54;101371.19;;;12.46;100.00
57056;BME280;42945;51.718;5.324;2023-07-20T03:20:19;101261.69;;;11.75;100.00
57056;BME280;42945;51.718;5.324;2023-07-20T03:22:45;101388.97;;;12.45;100.00
57056;BME280;42945;51.718;5.324;2023-07-20T03:25:10;101418.81;;;12.34;100.00
57056;BME280;42945;51.718;5.324;2023-07-20T03:27:35;101358.94;;;12.43;100.00
57056;BME280;42945;51.718;5.324;2023-07-20T03:30:01;101398.56;;;12.48;100.00
57056;BME280;42945;51.718;5.324;2023-07-20T03:32:27;101430.22;;;12.36;100.00
57056;BME280;42945;51.718;5.324;2023-07-20T03:34:52;101342.72;;;12.32;100.00
57056;BME280;42945;51.718;5.324;2023-07-20T03:37:17;101390.34;;;12.36;100.00
57056;BME280;42945;51.718;5.324;2023-07-20T03:39:43;101322.19;;;11.70;100.00
57056;BME280;42945;51.718;5.324;2023-07-20T03:42:08;101387.09;;;12.31;100.00
57056;BME280;42945;51.718;5.324;2023-07-20T03:44:33;101392.63;;;12.43;100.00
57056;BME280;42945;51.718;5.324;2023-07-20T03:46:59;101390.69;;;12.30;100.00
57056;BME280;42945;51.718;5.324;2023-07-20T03:49:24;101301.13;;;11.67;100.00
57056;BME280;42945;51.718;5.324;2023-07-20T03:51:49;101389.47;;;12.36;100.00
57056;BME280;42945;51.718;5.324;2023-07-20T03:54:14;101307.97;;;11.71;100.00
57056;BME280;42945;51.718;5.324;2023-07-20T03:56:40;101429.81;;;12.28;100.00
57056;BME280;42945;51.718;5.324;2023-07-20T03:59:05;101412.91;;;12.29;100.00
57056;BME280;42945;51.718;5.324;2023-07-20T04:01:30;101305.81;;;11.78;100.00
57056;BME280;42945;51.718;5.324;2023-07-20T04:04:01;101448.63;;;12.41;100.00
57056;BME280;42945;51.718;5.324;2023-07-20T04:06:27;101437.63;;;12.47;100.00
57056;BME280;42945;51.718;5.324;2023-07-20T04:08:52;101314.13;;;11.88;100.00
57056;BME280;42945;51.718;5.324;2023-07-20T04:11:17;101433.78;;;12.37;100.00
57056;BME280;42945;51.718;5.324;2023-07-20T04:13:42;101439.09;;;12.53;100.00
57056;BME280;42945;51.718;5.324;2023-07-20T04:16:08;101293.91;;;11.85;100.00
57056;BME280;42945;51.718;5.324;2023-07-20T04:18:33;101365.72;;;12.49;100.00
57056;BME280;42945;51.718;5.324;2023-07-20T04:20:58;101449.03;;;12.49;100.00
57056;BME280;42945;51.718;5.324;2023-07-20T04:23:23;101376.94;;;12.38;100.00
57056;BME280;42945;51.718;5.324;2023-07-20T04:25:49;101434.78;;;12.34;100.00
57056;BME280;42945;51.718;5.324;2023-07-20T04:28:14;101413.94;;;12.58;100.00
57056;BME280;42945;51.718;5.324;2023-07-20T04:30:39;101420.59;;;12.66;100.00
57056;BME280;42945;51.718;5.324;2023-07-20T04:33:05;101442.84;;;12.80;100.00
57056;BME280;42945;51.718;5.324;2023-07-20T04:35:51;101413.19;;;12.87;100.00
57056;BME280;42945;51.718;5.324;2023-07-20T04:38:18;101457.69;;;12.85;100.00
57056;BME280;42945;51.718;5.324;2023-07-20T04:40:47;101435.63;;;12.83;100.00
57056;BME280;42945;51.718;5.324;2023-07-20T04:43:14;101429.75;;;12.92;100.00
57056;BME280;42945;51.718;5.324;2023-07-20T04:45:39;101453.28;;;12.99;100.00
57056;BME280;42945;51.718;5.324;2023-07-20T04:48:09;104954.44;;;33.98;100.00
57056;BME280;42945;51.718;5.324;2023-07-20T04:50:36;101394.97;;;12.95;100.00
57056;BME280;42945;51.718;5.324;2023-07-20T04:53:01;101453.91;;;13.19;100.00
57056;BME280;42945;51.718;5.324;2023-07-20T04:55:27;101385.28;;;13.08;100.00
57056;BME280;42945;51.718;5.324;2023-07-20T04:57:53;101397.22;;;13.17;100.00
57056;BME280;42945;51.718;5.324;2023-07-20T05:00:19;101432.69;;;13.17;100.00
57056;BME280;42945;51.718;5.324;2023-07-20T05:02:44;101373.72;;;13.09;100.00
57056;BME280;42945;51.718;5.324;2023-07-20T05:05:10;101248.75;;;12.61;100.00
57056;BME280;42945;51.718;5.324;2023-07-20T05:07:35;101403.88;;;13.40;100.00
57056;BME280;42945;51.718;5.324;2023-07-20T05:10:00;101435.16;;;13.36;100.00
57056;BME280;42945;51.718;5.324;2023-07-20T05:12:26;101388.84;;;13.53;100.00
57056;BME280;42945;51.718;5.324;2023-07-20T05:14:51;101401.72;;;13.61;100.00
57056;BME280;42945;51.718;5.324;2023-07-20T05:17:17;101320.63;;;13.06;100.00
57056;BME280;42945;51.718;5.324;2023-07-20T05:19:42;101478.63;;;13.82;100.00
57056;BME280;42945;51.718;5.324;2023-07-20T05:22:07;101413.78;;;13.95;100.00
57056;BME280;42945;51.718;5.324;2023-07-20T05:24:33;101442.81;;;13.86;100.00
57056;BME280;42945;51.718;5.324;2023-07-20T05:26:58;101427.31;;;14.07;100.00
57056;BME280;42945;51.718;5.324;2023-07-20T05:29:24;101304.25;;;13.43;100.00
57056;BME280;42945;51.718;5.324;2023-07-20T05:31:49;101415.19;;;14.01;100.00
57056;BME280;42945;51.718;5.324;2023-07-20T05:34:14;101393.78;;;14.03;100.00
57056;BME280;42945;51.718;5.324;2023-07-20T05:36:40;101441.66;;;14.33;100.00
57056;BME280;42945;51.718;5.324;2023-07-20T05:39:06;101437.19;;;14.33;100.00
57056;BME280;42945;51.718;5.324;2023-07-20T05:41:31;101474.44;;;14.21;100.00
57056;BME280;42945;51.718;5.324;2023-07-20T05:43:56;101416.03;;;14.30;100.00
57056;BME280;42945;51.718;5.324;2023-07-20T05:46:22;101459.19;;;14.37;100.00
57056;BME280;42945;51.718;5.324;2023-07-20T05:48:49;101417.38;;;14.23;100.00
57056;BME280;42945;51.718;5.324;2023-07-20T05:51:14;101321.81;;;13.74;100.00
57056;BME280;42945;51.718;5.324;2023-07-20T05:53:40;101428.38;;;14.46;100.00
57056;BME280;42945;51.718;5.324;2023-07-20T05:56:06;101400.88;;;14.72;100.00
57056;BME280;42945;51.718;5.324;2023-07-20T05:58:35;101452.41;;;14.87;100.00
57056;BME280;42945;51.718;5.324;2023-07-20T06:01:00;101375.66;;;14.64;100.00
57056;BME280;42945;51.718;5.324;2023-07-20T06:03:25;101394.88;;;14.69;100.00
57056;BME280;42945;51.718;5.324;2023-07-20T06:05:50;101392.88;;;14.72;100.00
57056;BME280;42945;51.718;5.324;2023-07-20T06:08:17;101409.19;;;15.08;100.00
57056;BME280;42945;51.718;5.324;2023-07-20T06:10:42;101343.88;;;14.86;100.00
57056;BME280;42945;51.718;5.324;2023-07-20T06:13:07;101331.94;;;15.05;100.00
57056;BME280;42945;51.718;5.324;2023-07-20T06:15:33;101414.09;;;15.14;100.00
57056;BME280;42945;51.718;5.324;2023-07-20T06:18:00;101403.09;;;14.93;100.00
57056;BME280;42945;51.718;5.324;2023-07-20T06:20:26;101354.78;;;14.96;100.00
57056;BME280;42945;51.718;5.324;2023-07-20T06:22:51;101373.63;;;15.33;100.00
57056;BME280;42945;51.718;5.324;2023-07-20T06:25:17;101420.66;;;15.23;100.00
57056;BME280;42945;51.718;5.324;2023-07-20T06:27:42;101427.75;;;15.49;100.00
57056;BME280;42945;51.718;5.324;2023-07-20T06:30:08;101422.03;;;15.15;100.00
57056;BME280;42945;51.718;5.324;2023-07-20T06:32:34;101356.00;;;15.69;100.00
57056;BME280;42945;51.718;5.324;2023-07-20T06:34:59;101254.16;;;14.84;100.00
57056;BME280;42945;51.718;5.324;2023-07-20T06:37:24;101393.97;;;16.00;100.00
57056;BME280;42945;51.718;5.324;2023-07-20T06:39:49;101379.44;;;15.78;100.00
57056;BME280;42945;51.718;5.324;2023-07-20T06:42:15;101376.63;;;15.80;100.00
57056;BME280;42945;51.718;5.324;2023-07-20T06:44:40;101365.72;;;15.44;100.00
57056;BME280;42945;51.718;5.324;2023-07-20T06:47:05;101191.88;;;15.59;100.00
57056;BME280;42945;51.718;5.324;2023-07-20T06:49:31;101340.56;;;15.98;100.00
57056;BME280;42945;51.718;5.324;2023-07-20T06:51:56;101392.06;;;15.76;100.00
57056;BME280;42945;51.718;5.324;2023-07-20T06:54:22;101315.13;;;15.67;100.00
57056;BME280;42945;51.718;5.324;2023-07-20T06:56:47;101369.50;;;15.80;100.00
57056;BME280;42945;51.718;5.324;2023-07-20T06:59:13;101315.94;;;15.43;100.00
57056;BME280;42945;51.718;5.324;2023-07-20T07:01:38;101381.59;;;15.73;100.00
57056;BME280;42945;51.718;5.324;2023-07-20T07:04:04;101380.19;;;15.80;100.00
57056;BME280;42945;51.718;5.324;2023-07-20T07:06:30;101404.56;;;15.88;100.00
57056;BME280;42945;51.718;5.324;2023-07-20T07:08:56;101404.03;;;15.83;100.00
57056;BME280;42945;51.718;5.324;2023-07-20T07:11:21;101332.03;;;15.54;100.00
57056;BME280;42945;51.718;5.324;2023-07-20T07:13:47;101352.69;;;15.52;100.00
57056;BME280;42945;51.718;5.324;2023-07-20T07:16:14;101384.84;;;16.02;100.00
57056;BME280;42945;51.718;5.324;2023-07-20T07:18:44;101353.88;;;16.11;100.00
57056;BME280;42945;51.718;5.324;2023-07-20T07:21:09;101331.63;;;16.10;100.00
57056;BME280;42945;51.718;5.324;2023-07-20T07:23:35;101332.44;;;15.87;100.00
57056;BME280;42945;51.718;5.324;2023-07-20T07:26:00;101305.00;;;16.33;100.00
57056;BME280;42945;51.718;5.324;2023-07-20T07:28:25;101318.84;;;16.86;100.00
57056;BME280;42945;51.718;5.324;2023-07-20T07:30:51;101327.03;;;16.85;100.00
57056;BME280;42945;51.718;5.324;2023-07-20T07:33:16;101236.44;;;17.01;100.00
57056;BME280;42945;51.718;5.324;2023-07-20T07:35:41;101309.31;;;17.63;100.00
57056;BME280;42945;51.718;5.324;2023-07-20T07:38:07;101295.75;;;18.42;100.00
57056;BME280;42945;51.718;5.324;2023-07-20T07:40:32;101325.88;;;18.45;100.00
57056;BME280;42945;51.718;5.324;2023-07-20T07:42:58;101316.00;;;18.46;100.00
57056;BME280;42945;51.718;5.324;2023-07-20T07:45:23;101302.56;;;18.99;100.00
57056;BME280;42945;51.718;5.324;2023-07-20T07:47:48;101269.00;;;18.19;100.00
57056;BME280;42945;51.718;5.324;2023-07-20T07:50:14;101297.34;;;18.01;100.00
57056;BME280;42945;51.718;5.324;2023-07-20T07:52:39;101342.72;;;17.36;100.00
57056;BME280;42945;51.718;5.324;2023-07-20T07:55:05;101230.53;;;16.73;100.00
57056;BME280;42945;51.718;5.324;2023-07-20T07:57:30;101357.97;;;16.89;100.00
57056;BME280;42945;51.718;5.324;2023-07-20T07:59:56;101344.63;;;17.23;100.00
57056;BME280;42945;51.718;5.324;2023-07-20T08:02:21;101323.34;;;17.44;100.00
57056;BME280;42945;51.718;5.324;2023-07-20T08:04:50;101218.78;;;16.87;100.00
57056;BME280;42945;51.718;5.324;2023-07-20T08:07:17;101268.09;;;16.96;100.00
57056;BME280;42945;51.718;5.324;2023-07-20T08:09:45;101305.91;;;17.38;100.00
57056;BME280;42945;51.718;5.324;2023-07-20T08:12:10;101330.78;;;17.97;100.00
57056;BME280;42945;51.718;5.324;2023-07-20T08:14:36;100993.56;;;18.88;100.00
57056;BME280;42945;51.718;5.324;2023-07-20T08:17:01;101274.16;;;18.64;100.00
57056;BME280;42945;51.718;5.324;2023-07-20T08:19:27;101329.31;;;17.93;100.00
57056;BME280;42945;51.718;5.324;2023-07-20T08:21:52;101348.19;;;18.14;100.00
57056;BME280;42945;51.718;5.324;2023-07-20T08:24:18;101324.00;;;18.25;100.00
57056;BME280;42945;51.718;5.324;2023-07-20T08:26:44;101402.59;;;18.70;100.00
57056;BME280;42945;51.718;5.324;2023-07-20T08:29:09;101141.53;;;17.26;100.00
57056;BME280;42945;51.718;5.324;2023-07-20T08:31:34;101201.81;;;18.30;100.00
57056;BME280;42945;51.718;5.324;2023-07-20T08:34:00;101317.53;;;18.60;100.00
57056;BME280;42945;51.718;5.324;2023-07-20T08:36:25;101320.34;;;18.58;100.00
57056;BME280;42945;51.718;5.324;2023-07-20T08:38:52;101334.16;;;18.86;100.00
57056;BME280;42945;51.718;5.324;2023-07-20T08:41:18;101492.28;;;19.88;100.00
57056;BME280;42945;51.718;5.324;2023-07-20T08:43:46;101325.31;;;19.16;100.00
57056;BME280;42945;51.718;5.324;2023-07-20T08:46:12;101297.16;;;18.57;100.00
57056;BME280;42945;51.718;5.324;2023-07-20T08:48:41;101311.84;;;17.76;100.00
57056;BME280;42945;51.718;5.324;2023-07-20T08:51:07;101235.59;;;17.12;100.00
57056;BME280;42945;51.718;5.324;2023-07-20T08:53:32;101206.84;;;17.14;100.00
57056;BME280;42945;51.718;5.324;2023-07-20T08:55:59;101311.97;;;18.08;100.00
57056;BME280;42945;51.718;5.324;2023-07-20T08:58:25;101202.63;;;18.10;100.00
57056;BME280;42945;51.718;5.324;2023-07-20T09:00:52;101330.50;;;19.08;100.00
57056;BME280;42945;51.718;5.324;2023-07-20T09:03:18;100983.59;;;19.19;100.00
57056;BME280;42945;51.718;5.324;2023-07-20T09:05:44;101303.50;;;19.40;100.00
57056;BME280;42945;51.718;5.324;2023-07-20T09:08:10;101125.88;;;19.01;100.00
57056;BME280;42945;51.718;5.324;2023-07-20T09:10:35;101299.03;;;19.51;100.00
57056;BME280;42945;51.718;5.324;2023-07-20T09:13:01;101296.00;;;19.44;100.00
57056;BME280;42945;51.718;5.324;2023-07-20T09:15:26;101184.78;;;18.83;100.00
57056;BME280;42945;51.718;5.324;2023-07-20T09:17:52;101320.63;;;19.39;100.00
57056;BME280;42945;51.718;5.324;2023-07-20T09:20:20;101374.22;;;19.83;100.00
57056;BME280;42945;51.718;5.324;2023-07-20T09:22:45;101287.59;;;19.58;100.00
57056;BME280;42945;51.718;5.324;2023-07-20T09:25:13;101226.88;;;18.94;100.00
57056;BME280;42945;51.718;5.324;2023-07-20T09:27:40;101279.09;;;20.42;100.00
57056;BME280;42945;51.718;5.324;2023-07-20T09:30:06;101343.53;;;20.65;100.00
57056;BME280;42945;51.718;5.324;2023-07-20T09:32:43;101280.66;;;20.64;100.00
57056;BME280;42945;51.718;5.324;2023-07-20T09:35:16;101274.56;;;21.29;100.00
57056;BME280;42945;51.718;5.324;2023-07-20T09:38:00;101302.69;;;21.27;100.00
57056;BME280;42945;51.718;5.324;2023-07-20T09:40:27;101294.06;;;21.60;100.00
57056;BME280;42945;51.718;5.324;2023-07-20T09:42:53;101289.81;;;22.31;100.00
57056;BME280;42945;51.718;5.324;2023-07-20T09:45:41;101230.38;;;21.02;100.00
57056;BME280;42945;51.718;5.324;2023-07-20T09:48:08;101267.25;;;21.12;100.00
57056;BME280;42945;51.718;5.324;2023-07-20T09:50:39;101309.69;;;21.10;100.00
57056;BME280;42945;51.718;5.324;2023-07-20T09:53:06;101244.59;;;21.32;100.00
57056;BME280;42945;51.718;5.324;2023-07-20T09:55:32;101157.09;;;19.83;100.00
57056;BME280;42945;51.718;5.324;2023-07-20T09:58:00;101223.06;;;20.85;100.00
57056;BME280;42945;51.718;5.324;2023-07-20T10:00:25;101304.19;;;20.43;100.00
57056;BME280;42945;51.718;5.324;2023-07-20T10:02:52;101300.09;;;20.78;100.00
57056;BME280;42945;51.718;5.324;2023-07-20T10:05:17;101285.16;;;19.55;100.00
57056;BME280;42945;51.718;5.324;2023-07-20T10:07:48;101228.63;;;18.84;100.00
57056;BME280;42945;51.718;5.324;2023-07-20T10:10:17;101294.97;;;18.83;100.00
57056;BME280;42945;51.718;5.324;2023-07-20T10:12:45;101236.13;;;19.42;100.00
57056;BME280;42945;51.718;5.324;2023-07-20T10:15:17;101175.47;;;18.66;100.00
57056;BME280;42945;51.718;5.324;2023-07-20T10:20:20;101189.19;;;19.25;100.00
57056;BME280;42945;51.718;5.324;2023-07-20T10:22:47;101248.47;;;18.50;100.00
57056;BME280;42945;51.718;5.324;2023-07-20T10:25:13;101290.31;;;18.85;100.00
57056;BME280;42945;51.718;5.324;2023-07-20T10:27:39;101293.59;;;19.72;100.00
57056;BME280;42945;51.718;5.324;2023-07-20T10:30:06;101278.50;;;20.00;100.00
57056;BME280;42945;51.718;5.324;2023-07-20T10:32:31;101179.47;;;20.03;100.00
57056;BME280;42945;51.718;5.324;2023-07-20T10:34:57;101245.47;;;19.78;100.00
57056;BME280;42945;51.718;5.324;2023-07-20T10:37:49;101208.91;;;18.95;100.00
57056;BME280;42945;51.718;5.324;2023-07-20T10:42:50;101246.06;;;19.51;100.00
57056;BME280;42945;51.718;5.324;2023-07-20T10:45:17;101275.97;;;20.08;100.00
57056;BME280;42945;51.718;5.324;2023-07-20T10:47:45;101383.41;;;21.57;100.00
57056;BME280;42945;51.718;5.324;2023-07-20T10:50:12;101141.44;;;20.36;100.00
57056;BME280;42945;51.718;5.324;2023-07-20T10:52:39;101195.88;;;20.30;100.00
57056;BME280;42945;51.718;5.324;2023-07-20T10:55:14;101280.44;;;21.15;100.00
57056;BME280;42945;51.718;5.324;2023-07-20T10:57:40;101227.06;;;20.42;100.00
57056;BME280;42945;51.718;5.324;2023-07-20T11:00:14;101364.88;;;21.35;100.00
57056;BME280;42945;51.718;5.324;2023-07-20T11:02:44;101234.69;;;20.56;100.00
57056;BME280;42945;51.718;5.324;2023-07-20T11:07:57;101275.13;;;20.17;100.00
57056;BME280;42945;51.718;5.324;2023-07-20T11:10:22;101235.16;;;21.09;100.00
57056;BME280;42945;51.718;5.324;2023-07-20T11:13:16;101273.72;;;20.72;100.00
57056;BME280;42945;51.718;5.324;2023-07-20T11:16:02;101200.22;;;21.17;100.00
57056;BME280;42945;51.718;5.324;2023-07-20T11:18:33;101210.66;;;22.03;97.10
57056;BME280;42945;51.718;5.324;2023-07-20T11:20:59;101180.59;;;21.24;92.05
57056;BME280;42945;51.718;5.324;2023-07-20T11:23:24;101231.94;;;22.60;86.76
57056;BME280;42945;51.718;5.324;2023-07-20T11:25:50;101257.19;;;21.97;94.11
57056;BME280;42945;51.718;5.324;2023-07-20T11:28:15;101221.69;;;22.90;90.16
57056;BME280;42945;51.718;5.324;2023-07-20T11:30:41;101242.69;;;21.98;90.85
57056;BME280;42945;51.718;5.324;2023-07-20T11:33:12;101251.84;;;21.32;96.84
57056;BME280;42945;51.718;5.324;2023-07-20T11:35:44;101224.16;;;22.03;85.20
57056;BME280;42945;51.718;5.324;2023-07-20T11:38:12;101237.00;;;22.37;82.20
57056;BME280;42945;51.718;5.324;2023-07-20T11:40:42;101201.69;;;21.11;90.73
57056;BME280;42945;51.718;5.324;2023-07-20T11:43:08;101198.28;;;21.37;95.31
57056;BME280;42945;51.718;5.324;2023-07-20T11:45:35;101264.88;;;21.36;94.05
57056;BME280;42945;51.718;5.324;2023-07-20T11:48:00;101248.69;;;21.36;94.10
57056;BME280;42945;51.718;5.324;2023-07-20T11:50:26;101212.25;;;20.85;96.90
57056;BME280;42945;51.718;5.324;2023-07-20T11:52:51;101123.56;;;21.47;88.91
57056;BME280;42945;51.718;5.324;2023-07-20T11:55:17;101224.06;;;21.21;91.40
57056;BME280;42945;51.718;5.324;2023-07-20T11:58:00;101208.03;;;21.93;87.23
57056;BME280;42945;51.718;5.324;2023-07-20T12:00:25;101200.22;;;21.90;86.77
57056;BME280;42945;51.718;5.324;2023-07-20T12:02:53;101143.69;;;22.25;79.69
57056;BME280;42945;51.718;5.324;2023-07-20T12:05:18;101199.94;;;22.29;76.98
57056;BME280;42945;51.718;5.324;2023-07-20T12:07:44;101200.09;;;21.92;81.59
57056;BME280;42945;51.718;5.324;2023-07-20T12:10:11;101187.03;;;21.41;87.19
57056;BME280;42945;51.718;5.324;2023-07-20T12:12:43;101533.25;;;21.13;87.08
57056;BME280;42945;51.718;5.324;2023-07-20T12:17:44;101212.84;;;22.35;75.78
57056;BME280;42945;51.718;5.324;2023-07-20T12:20:11;101175.56;;;22.03;78.25
57056;BME280;42945;51.718;5.324;2023-07-20T12:22:43;101202.72;;;21.28;88.90
57056;BME280;42945;51.718;5.324;2023-07-20T12:25:09;101182.91;;;21.93;88.48
57056;BME280;42945;51.718;5.324;2023-07-20T12:27:37;101207.78;;;21.41;85.75
57056;BME280;42945;51.718;5.324;2023-07-20T12:30:05;101175.06;;;21.54;90.15
57056;BME280;42945;51.718;5.324;2023-07-20T12:32:30;101207.03;;;21.21;85.12
57056;BME280;42945;51.718;5.324;2023-07-20T12:34:55;101100.25;;;20.73;87.26
57056;BME280;42945;51.718;5.324;2023-07-20T12:37:21;101211.84;;;21.27;92.83
57056;BME280;42945;51.718;5.324;2023-07-20T12:39:46;101215.56;;;21.16;94.69
57056;BME280;42945;51.718;5.324;2023-07-20T12:42:12;101226.28;;;20.98;98.28
57056;BME280;42945;51.718;5.324;2023-07-20T12:44:39;101215.47;;;21.36;95.22
57056;BME280;42945;51.718;5.324;2023-07-20T12:47:05;101173.47;;;21.06;96.83
57056;BME280;42945;51.718;5.324;2023-07-20T12:49:30;101200.53;;;21.69;92.69
57056;BME280;42945;51.718;5.324;2023-07-20T12:51:56;101229.69;;;20.91;95.15
57056;BME280;42945;51.718;5.324;2023-07-20T12:54:21;101286.31;;;20.91;96.97